sensor_id;sensor_type;location;lat;lon;timestamp;pressure;altitude;pressure_sealevel;temperature
75428;BMP280;64008;55.612;37.698;2023-08-07T00:00:42;99643.63;;;29.87
75428;BMP280;64008;55.612;37.698;2023-08-07T00:03:08;99648.34;;;29.90
75428;BMP280;64008;55.612;37.698;2023-08-07T00:05:33;99636.63;;;29.90
75428;BMP280;64008;55.612;37.698;2023-08-07T00:07:59;99641.69;;;29.88
75428;BMP280;64008;55.612;37.698;2023-08-07T00:10:24;99636.97;;;29.85
75428;BMP280;64008;55.612;37.698;2023-08-07T00:12:50;99636.97;;;29.85
75428;BMP280;64008;55.612;37.698;2023-08-07T00:15:15;99638.13;;;29.84
75428;BMP280;64008;55.612;37.698;2023-08-07T00:17:41;99637.41;;;29.87
75428;BMP280;64008;55.612;37.698;2023-08-07T00:20:07;99641.31;;;29.89
75428;BMP280;64008;55.612;37.698;2023-08-07T00:22:33;99643.63;;;29.87
75428;BMP280;64008;55.612;37.698;2023-08-07T00:24:58;99649.91;;;29.91
75428;BMP280;64008;55.612;37.698;2023-08-07T00:27:24;99649.91;;;29.91
75428;BMP280;64008;55.612;37.698;2023-08-07T00:29:49;99651.44;;;29.89
75428;BMP280;64008;55.612;37.698;2023-08-07T00:32:15;99647.53;;;29.90
75428;BMP280;64008;55.612;37.698;2023-08-07T00:34:40;99645.56;;;29.87
75428;BMP280;64008;55.612;37.698;2023-08-07T00:37:06;99640.06;;;29.83
75428;BMP280;64008;55.612;37.698;2023-08-07T00:39:31;99638.13;;;29.84
75428;BMP280;64008;55.612;37.698;2023-08-07T00:41:57;99643.25;;;29.85
75428;BMP280;64008;55.612;37.698;2023-08-07T00:44:22;99643.25;;;29.85
75428;BMP280;64008;55.612;37.698;2023-08-07T00:46:51;99637.72;;;29.55
75428;BMP280;64008;55.612;37.698;2023-08-07T00:49:17;99637.72;;;29.55
75428;BMP280;64008;55.612;37.698;2023-08-07T00:51:44;99648.41;;;27.66
75428;BMP280;64008;55.612;37.698;2023-08-07T00:54:12;99645.69;;;27.35
75428;BMP280;64008;55.612;37.698;2023-08-07T00:56:40;99647.19;;;27.32
75428;BMP280;64008;55.612;37.698;2023-08-07T00:59:06;99650.97;;;27.27
75428;BMP280;64008;55.612;37.698;2023-08-07T01:01:32;99648.88;;;26.93
75428;BMP280;64008;55.612;37.698;2023-08-07T01:03:57;99635.53;;;27.31
75428;BMP280;64008;55.612;37.698;2023-08-07T01:06:23;99633.63;;;27.48
75428;BMP280;64008;55.612;37.698;2023-08-07T01:08:48;99630.88;;;27.00
75428;BMP280;64008;55.612;37.698;2023-08-07T01:11:39;99630.88;;;27.00
75428;BMP280;64008;55.612;37.698;2023-08-07T01:17:09;99618.72;;;26.94
75428;BMP280;64008;55.612;37.698;2023-08-07T01:19:36;99611.88;;;26.56
75428;BMP280;64008;55.612;37.698;2023-08-07T01:22:16;99619.78;;;26.49
75428;BMP280;64008;55.612;37.698;2023-08-07T01:24:44;99623.91;;;26.59
75428;BMP280;64008;55.612;37.698;2023-08-07T01:30:02;99621.78;;;26.52
75428;BMP280;64008;55.612;37.698;2023-08-07T01:32:39;99615.31;;;26.41
75428;BMP280;64008;55.612;37.698;2023-08-07T01:35:08;99612.78;;;26.48
75428;BMP280;64008;55.612;37.698;2023-08-07T01:37:39;99618.69;;;26.26
75428;BMP280;64008;55.612;37.698;2023-08-07T01:40:06;99616.31;;;26.36
75428;BMP280;64008;55.612;37.698;2023-08-07T01:42:33;99616.31;;;26.36
75428;BMP280;64008;55.612;37.698;2023-08-07T01:44:58;99609.59;;;26.18
75428;BMP280;64008;55.612;37.698;2023-08-07T01:47:24;99609.59;;;26.18
75428;BMP280;64008;55.612;37.698;2023-08-07T01:49:49;99609.88;;;26.41
75428;BMP280;64008;55.612;37.698;2023-08-07T01:52:15;99613.28;;;26.26
75428;BMP280;64008;55.612;37.698;2023-08-07T01:54:40;99618.38;;;26.27
75428;BMP280;64008;55.612;37.698;2023-08-07T01:57:06;99608.72;;;26.02
75428;BMP280;64008;55.612;37.698;2023-08-07T01:59:31;99602.69;;;26.21
75428;BMP280;64008;55.612;37.698;2023-08-07T02:01:57;99605.53;;;26.00
75428;BMP280;64008;55.612;37.698;2023-08-07T02:04:22;99605.28;;;26.29
75428;BMP280;64008;55.612;37.698;2023-08-07T02:06:48;99613.69;;;26.40
75428;BMP280;64008;55.612;37.698;2023-08-07T02:09:13;99604.72;;;26.24
75428;BMP280;64008;55.612;37.698;2023-08-07T02:11:39;99604.72;;;26.24
75428;BMP280;64008;55.612;37.698;2023-08-07T02:14:04;99608.94;;;26.21
75428;BMP280;64008;55.612;37.698;2023-08-07T02:16:30;99607.59;;;26.43
75428;BMP280;64008;55.612;37.698;2023-08-07T02:18:55;99611.53;;;26.46
75428;BMP280;64008;55.612;37.698;2023-08-07T02:21:21;99618.31;;;26.11
75428;BMP280;64008;55.612;37.698;2023-08-07T02:23:46;99615.22;;;26.13
75428;BMP280;64008;55.612;37.698;2023-08-07T02:26:11;99613.25;;;25.98
75428;BMP280;64008;55.612;37.698;2023-08-07T02:28:37;99613.75;;;26.15
75428;BMP280;64008;55.612;37.698;2023-08-07T02:31:02;99611.69;;;25.84
75428;BMP280;64008;55.612;37.698;2023-08-07T02:33:28;99607.31;;;26.20
75428;BMP280;64008;55.612;37.698;2023-08-07T02:35:56;99602.06;;;26.11
75428;BMP280;64008;55.612;37.698;2023-08-07T02:38:21;99602.16;;;25.90
75428;BMP280;64008;55.612;37.698;2023-08-07T02:40:47;99607.69;;;25.69
75428;BMP280;64008;55.612;37.698;2023-08-07T02:43:12;99607.69;;;25.69
75428;BMP280;64008;55.612;37.698;2023-08-07T02:45:38;99603.88;;;25.95
75428;BMP280;64008;55.612;37.698;2023-08-07T02:48:04;99597.09;;;26.01
75428;BMP280;64008;55.612;37.698;2023-08-07T02:50:30;99599.25;;;25.59
75428;BMP280;64008;55.612;37.698;2023-08-07T02:52:58;99602.41;;;25.73
75428;BMP280;64008;55.612;37.698;2023-08-07T02:55:23;99594.94;;;26.07
75428;BMP280;64008;55.612;37.698;2023-08-07T02:57:49;99602.09;;;25.75
75428;BMP280;64008;55.612;37.698;2023-08-07T03:00:15;99605.13;;;25.98
75428;BMP280;64008;55.612;37.698;2023-08-07T03:02:40;99603.09;;;25.70
75428;BMP280;64008;55.612;37.698;2023-08-07T03:05:06;99616.16;;;26.05
75428;BMP280;64008;55.612;37.698;2023-08-07T03:07:32;99616.16;;;26.05
75428;BMP280;64008;55.612;37.698;2023-08-07T03:09:57;99607.81;;;25.85
75428;BMP280;64008;55.612;37.698;2023-08-07T03:12:23;99607.81;;;25.85
75428;BMP280;64008;55.612;37.698;2023-08-07T03:14:48;99605.31;;;26.17
75428;BMP280;64008;55.612;37.698;2023-08-07T03:17:14;99599.94;;;25.68
75428;BMP280;64008;55.612;37.698;2023-08-07T03:19:42;99593.63;;;25.64
75428;BMP280;64008;55.612;37.698;2023-08-07T03:22:08;99594.94;;;25.82
75428;BMP280;64008;55.612;37.698;2023-08-07T03:24:34;99605.59;;;25.87
75428;BMP280;64008;55.612;37.698;2023-08-07T03:26:59;99602.41;;;25.61
75428;BMP280;64008;55.612;37.698;2023-08-07T03:29:25;99601.16;;;25.95
75428;BMP280;64008;55.612;37.698;2023-08-07T03:31:50;99607.47;;;25.62
75428;BMP280;64008;55.612;37.698;2023-08-07T03:34:16;99607.47;;;25.62
75428;BMP280;64008;55.612;37.698;2023-08-07T03:36:41;99601.06;;;25.91
75428;BMP280;64008;55.612;37.698;2023-08-07T03:39:07;99603.41;;;25.56
75428;BMP280;64008;55.612;37.698;2023-08-07T03:41:33;99595.06;;;25.61
75428;BMP280;64008;55.612;37.698;2023-08-07T03:43:58;99594.03;;;25.41
75428;BMP280;64008;55.612;37.698;2023-08-07T03:46:24;99592.72;;;25.72
75428;BMP280;64008;55.612;37.698;2023-08-07T03:48:49;99592.50;;;25.77
75428;BMP280;64008;55.612;37.698;2023-08-07T03:51:15;99602.22;;;25.78
75428;BMP280;64008;55.612;37.698;2023-08-07T03:53:42;99593.94;;;25.62
75428;BMP280;64008;55.612;37.698;2023-08-07T03:56:07;99596.22;;;25.85
75428;BMP280;64008;55.612;37.698;2023-08-07T03:58:33;99586.97;;;25.86
75428;BMP280;64008;55.612;37.698;2023-08-07T04:00:58;99595.88;;;25.86
75428;BMP280;64008;55.612;37.698;2023-08-07T04:03:24;99592.69;;;25.97
75428;BMP280;64008;55.612;37.698;2023-08-07T04:05:53;99587.84;;;26.02
75428;BMP280;64008;55.612;37.698;2023-08-07T04:08:20;99599.00;;;25.88
75428;BMP280;64008;55.612;37.698;2023-08-07T04:10:45;99586.16;;;25.98
75428;BMP280;64008;55.612;37.698;2023-08-07T04:13:11;99585.69;;;25.96
75428;BMP280;64008;55.612;37.698;2023-08-07T04:15:36;99599.59;;;25.94
75428;BMP280;64008;55.612;37.698;2023-08-07T04:18:02;99595.53;;;25.88
75428;BMP280;64008;55.612;37.698;2023-08-07T04:20:27;99597.88;;;26.02
75428;BMP280;64008;55.612;37.698;2023-08-07T04:22:53;99597.72;;;26.23
75428;BMP280;64008;55.612;37.698;2023-08-07T04:25:18;99599.34;;;25.87
75428;BMP280;64008;55.612;37.698;2023-08-07T04:27:44;99606.22;;;25.97
75428;BMP280;64008;55.612;37.698;2023-08-07T04:30:10;99606.56;;;25.95
75428;BMP280;64008;55.612;37.698;2023-08-07T04:32:35;99606.56;;;25.95
75428;BMP280;64008;55.612;37.698;2023-08-07T04:35:01;99604.06;;;26.02
75428;BMP280;64008;55.612;37.698;2023-08-07T04:37:26;99597.69;;;25.95
75428;BMP280;64008;55.612;37.698;2023-08-07T04:39:52;99597.19;;;26.05
75428;BMP280;64008;55.612;37.698;2023-08-07T04:42:19;99591.00;;;26.04
75428;BMP280;64008;55.612;37.698;2023-08-07T04:44:45;99596.75;;;26.15
75428;BMP280;64008;55.612;37.698;2023-08-07T04:47:10;99588.31;;;26.45
75428;BMP280;64008;55.612;37.698;2023-08-07T04:49:36;99585.13;;;26.43
75428;BMP280;64008;55.612;37.698;2023-08-07T04:52:01;99595.47;;;26.65
75428;BMP280;64008;55.612;37.698;2023-08-07T04:54:27;99595.47;;;26.65
75428;BMP280;64008;55.612;37.698;2023-08-07T04:56:52;99579.22;;;26.53
75428;BMP280;64008;55.612;37.698;2023-08-07T04:59:18;99579.22;;;26.53
75428;BMP280;64008;55.612;37.698;2023-08-07T05:01:43;99584.94;;;27.07
75428;BMP280;64008;55.612;37.698;2023-08-07T05:04:09;99584.94;;;27.07
75428;BMP280;64008;55.612;37.698;2023-08-07T05:06:35;99576.88;;;26.95
75428;BMP280;64008;55.612;37.698;2023-08-07T05:09:00;99578.75;;;27.39
75428;BMP280;64008;55.612;37.698;2023-08-07T05:11:26;99578.75;;;27.39
75428;BMP280;64008;55.612;37.698;2023-08-07T05:13:51;99573.53;;;27.65
75428;BMP280;64008;55.612;37.698;2023-08-07T05:16:17;99577.16;;;26.90
75428;BMP280;64008;55.612;37.698;2023-08-07T05:18:44;99569.69;;;26.71
75428;BMP280;64008;55.612;37.698;2023-08-07T05:21:09;99568.25;;;26.62
75428;BMP280;64008;55.612;37.698;2023-08-07T05:23:35;99563.50;;;27.02
75428;BMP280;64008;55.612;37.698;2023-08-07T05:26:00;99571.63;;;27.18
75428;BMP280;64008;55.612;37.698;2023-08-07T05:28:27;99579.84;;;26.74
75428;BMP280;64008;55.612;37.698;2023-08-07T05:30:52;99561.94;;;26.57
75428;BMP280;64008;55.612;37.698;2023-08-07T05:33:18;99569.13;;;27.10
75428;BMP280;64008;55.612;37.698;2023-08-07T05:35:44;99568.50;;;26.72
75428;BMP280;64008;55.612;37.698;2023-08-07T05:38:09;99560.56;;;26.64
75428;BMP280;64008;55.612;37.698;2023-08-07T05:40:35;99563.88;;;26.57
75428;BMP280;64008;55.612;37.698;2023-08-07T05:43:01;99563.88;;;26.57
75428;BMP280;64008;55.612;37.698;2023-08-07T05:45:27;99556.09;;;26.55
75428;BMP280;64008;55.612;37.698;2023-08-07T05:47:53;99553.75;;;26.70
75428;BMP280;64008;55.612;37.698;2023-08-07T05:50:18;99550.94;;;26.66
75428;BMP280;64008;55.612;37.698;2023-08-07T05:52:44;99552.81;;;26.78
75428;BMP280;64008;55.612;37.698;2023-08-07T05:55:09;99558.66;;;26.80
75428;BMP280;64008;55.612;37.698;2023-08-07T05:57:35;99553.41;;;26.71
75428;BMP280;64008;55.612;37.698;2023-08-07T06:00:00;99537.94;;;26.72
75428;BMP280;64008;55.612;37.698;2023-08-07T06:02:26;99538.28;;;26.86
75428;BMP280;64008;55.612;37.698;2023-08-07T06:04:52;99541.19;;;26.77
75428;BMP280;64008;55.612;37.698;2023-08-07T06:07:18;99543.03;;;26.89
75428;BMP280;64008;55.612;37.698;2023-08-07T06:09:43;99537.25;;;26.91
75428;BMP280;64008;55.612;37.698;2023-08-07T06:12:09;99537.25;;;26.91
75428;BMP280;64008;55.612;37.698;2023-08-07T06:14:34;99537.88;;;26.84
75428;BMP280;64008;55.612;37.698;2023-08-07T06:17:00;99541.47;;;27.20
75428;BMP280;64008;55.612;37.698;2023-08-07T06:19:26;99538.94;;;27.11
75428;BMP280;64008;55.612;37.698;2023-08-07T06:21:53;99534.56;;;27.06
75428;BMP280;64008;55.612;37.698;2023-08-07T06:24:19;99534.56;;;27.06
75428;BMP280;64008;55.612;37.698;2023-08-07T06:26:45;99536.72;;;27.01
75428;BMP280;64008;55.612;37.698;2023-08-07T06:29:10;99539.16;;;27.06
75428;BMP280;64008;55.612;37.698;2023-08-07T06:31:36;99537.63;;;27.21
75428;BMP280;64008;55.612;37.698;2023-08-07T06:34:01;99536.56;;;27.25
75428;BMP280;64008;55.612;37.698;2023-08-07T06:36:27;99547.06;;;27.27
75428;BMP280;64008;55.612;37.698;2023-08-07T06:38:52;99546.78;;;27.32
75428;BMP280;64008;55.612;37.698;2023-08-07T06:41:18;99545.50;;;27.26
75428;BMP280;64008;55.612;37.698;2023-08-07T06:43:43;99545.50;;;27.26
75428;BMP280;64008;55.612;37.698;2023-08-07T06:46:09;99544.50;;;27.18
75428;BMP280;64008;55.612;37.698;2023-08-07T06:48:36;99537.06;;;27.15
75428;BMP280;64008;55.612;37.698;2023-08-07T06:51:02;99531.59;;;27.27
75428;BMP280;64008;55.612;37.698;2023-08-07T06:53:27;99537.88;;;27.67
75428;BMP280;64008;55.612;37.698;2023-08-07T06:55:53;99536.91;;;27.75
75428;BMP280;64008;55.612;37.698;2023-08-07T06:58:18;99533.81;;;27.76
75428;BMP280;64008;55.612;37.698;2023-08-07T07:00:44;99524.09;;;27.75
75428;BMP280;64008;55.612;37.698;2023-08-07T07:03:11;99527.19;;;27.74
75428;BMP280;64008;55.612;37.698;2023-08-07T07:05:37;99527.19;;;27.74
75428;BMP280;64008;55.612;37.698;2023-08-07T07:08:02;99531.75;;;27.70
75428;BMP280;64008;55.612;37.698;2023-08-07T07:10:28;99519.38;;;27.72
75428;BMP280;64008;55.612;37.698;2023-08-07T07:12:54;99519.38;;;27.72
75428;BMP280;64008;55.612;37.698;2023-08-07T07:15:20;99524.06;;;27.72
75428;BMP280;64008;55.612;37.698;2023-08-07T07:17:46;99518.16;;;27.70
75428;BMP280;64008;55.612;37.698;2023-08-07T07:20:11;99523.97;;;27.68
75428;BMP280;64008;55.612;37.698;2023-08-07T07:22:37;99521.25;;;27.68
75428;BMP280;64008;55.612;37.698;2023-08-07T07:25:03;99514.66;;;27.69
75428;BMP280;64008;55.612;37.698;2023-08-07T07:27:29;99512.41;;;27.71
75428;BMP280;64008;55.612;37.698;2023-08-07T07:29:54;99508.47;;;27.69
75428;BMP280;64008;55.612;37.698;2023-08-07T07:32:20;99507.66;;;27.68
75428;BMP280;64008;55.612;37.698;2023-08-07T07:34:46;99507.66;;;27.68
75428;BMP280;64008;55.612;37.698;2023-08-07T07:37:11;99516.88;;;27.64
75428;BMP280;64008;55.612;37.698;2023-08-07T07:39:39;99511.44;;;27.64
75428;BMP280;64008;55.612;37.698;2023-08-07T07:42:05;99511.44;;;27.64
75428;BMP280;64008;55.612;37.698;2023-08-07T07:44:31;99504.88;;;27.65
75428;BMP280;64008;55.612;37.698;2023-08-07T07:46:56;99499.44;;;27.65
75428;BMP280;64008;55.612;37.698;2023-08-07T07:49:22;99497.53;;;27.65
75428;BMP280;64008;55.612;37.698;2023-08-07T07:51:47;99486.59;;;27.62
75428;BMP280;64008;55.612;37.698;2023-08-07T07:54:14;99486.59;;;27.62
75428;BMP280;64008;55.612;37.698;2023-08-07T07:56:40;99498.16;;;27.59
75428;BMP280;64008;55.612;37.698;2023-08-07T07:59:05;99490.00;;;27.59
75428;BMP280;64008;55.612;37.698;2023-08-07T08:01:31;99489.22;;;27.58
75428;BMP280;64008;55.612;37.698;2023-08-07T08:03:56;99491.94;;;27.58
75428;BMP280;64008;55.612;37.698;2023-08-07T08:06:22;99489.63;;;27.60
75428;BMP280;64008;55.612;37.698;2023-08-07T08:08:47;99494.25;;;27.56
75428;BMP280;64008;55.612;37.698;2023-08-07T08:11:13;99494.25;;;27.56
75428;BMP280;64008;55.612;37.698;2023-08-07T08:13:38;99491.06;;;27.54
75428;BMP280;64008;55.612;37.698;2023-08-07T08:16:06;99496.50;;;27.54
75428;BMP280;64008;55.612;37.698;2023-08-07T08:18:32;99491.88;;;27.54
75428;BMP280;64008;55.612;37.698;2023-08-07T08:20:57;99483.28;;;27.52
75428;BMP280;64008;55.612;37.698;2023-08-07T08:23:23;99477.84;;;27.52
75428;BMP280;64008;55.612;37.698;2023-08-07T08:25:49;99489.53;;;27.53
75428;BMP280;64008;55.612;37.698;2023-08-07T08:28:14;99482.75;;;27.47
75428;BMP280;64008;55.612;37.698;2023-08-07T08:30:40;99470.88;;;27.51
75428;BMP280;64008;55.612;37.698;2023-08-07T08:33:05;99477.50;;;27.54
75428;BMP280;64008;55.612;37.698;2023-08-07T08:35:31;99463.00;;;27.46
75428;BMP280;64008;55.612;37.698;2023-08-07T08:37:57;99467.72;;;27.49
75428;BMP280;64008;55.612;37.698;2023-08-07T08:40:23;99473.13;;;27.49
75428;BMP280;64008;55.612;37.698;2023-08-07T08:42:49;99473.13;;;27.49
75428;BMP280;64008;55.612;37.698;2023-08-07T08:45:18;99469.81;;;27.56
75428;BMP280;64008;55.612;37.698;2023-08-07T08:47:45;99458.84;;;27.52
75428;BMP280;64008;55.612;37.698;2023-08-07T08:50:13;99466.94;;;27.49
75428;BMP280;64008;55.612;37.698;2023-08-07T08:52:44;99458.34;;;27.47
75428;BMP280;64008;55.612;37.698;2023-08-07T08:55:10;99461.06;;;27.47
75428;BMP280;64008;55.612;37.698;2023-08-07T08:57:38;99447.94;;;27.49
75428;BMP280;64008;55.612;37.698;2023-08-07T09:00:06;99440.19;;;27.51
75428;BMP280;64008;55.612;37.698;2023-08-07T09:02:36;99443.72;;;27.51
75428;BMP280;64008;55.612;37.698;2023-08-07T09:05:02;99443.28;;;27.49
75428;BMP280;64008;55.612;37.698;2023-08-07T09:07:28;99443.38;;;27.53
75428;BMP280;64008;55.612;37.698;2023-08-07T09:09:54;99436.78;;;27.54
75428;BMP280;64008;55.612;37.698;2023-08-07T09:12:26;99436.78;;;27.54
75428;BMP280;64008;55.612;37.698;2023-08-07T09:14:56;99433.28;;;27.53
75428;BMP280;64008;55.612;37.698;2023-08-07T09:17:29;99428.63;;;27.54
75428;BMP280;64008;55.612;37.698;2023-08-07T09:19:56;99432.53;;;27.53
75428;BMP280;64008;55.612;37.698;2023-08-07T09:22:23;99427.09;;;27.53
75428;BMP280;64008;55.612;37.698;2023-08-07T09:24:49;99431.34;;;27.54
75428;BMP280;64008;55.612;37.698;2023-08-07T09:27:15;99434.88;;;27.54
75428;BMP280;64008;55.612;37.698;2023-08-07T09:29:41;99429.84;;;27.57
75428;BMP280;64008;55.612;37.698;2023-08-07T09:32:12;99429.84;;;27.57
75428;BMP280;64008;55.612;37.698;2023-08-07T09:34:42;99410.50;;;27.58
75428;BMP280;64008;55.612;37.698;2023-08-07T09:37:08;99410.50;;;27.58
75428;BMP280;64008;55.612;37.698;2023-08-07T09:39:34;99416.06;;;27.65
75428;BMP280;64008;55.612;37.698;2023-08-07T09:42:02;99414.50;;;27.64
75428;BMP280;64008;55.612;37.698;2023-08-07T09:44:35;99414.50;;;27.64
75428;BMP280;64008;55.612;37.698;2023-08-07T09:47:11;99401.06;;;27.71
75428;BMP280;64008;55.612;37.698;2023-08-07T09:49:37;99412.00;;;27.75
75428;BMP280;64008;55.612;37.698;2023-08-07T09:52:05;99400.00;;;27.76
75428;BMP280;64008;55.612;37.698;2023-08-07T09:54:33;99397.34;;;27.80
75428;BMP280;64008;55.612;37.698;2023-08-07T09:57:01;99395.06;;;27.82
75428;BMP280;64008;55.612;37.698;2023-08-07T09:59:27;99396.22;;;27.81
75428;BMP280;64008;55.612;37.698;2023-08-07T10:01:54;99399.34;;;27.83
75428;BMP280;64008;55.612;37.698;2023-08-07T10:04:21;99385.03;;;27.86
75428;BMP280;64008;55.612;37.698;2023-08-07T10:06:47;99383.03;;;27.83
75428;BMP280;64008;55.612;37.698;2023-08-07T10:09:13;99389.41;;;27.90
75428;BMP280;64008;55.612;37.698;2023-08-07T10:11:40;99385.47;;;27.88
75428;BMP280;64008;55.612;37.698;2023-08-07T10:14:06;99385.47;;;27.88
75428;BMP280;64008;55.612;37.698;2023-08-07T10:16:32;99374.69;;;27.91
75428;BMP280;64008;55.612;37.698;2023-08-07T10:18:58;99373.59;;;27.96
75428;BMP280;64008;55.612;37.698;2023-08-07T10:21:24;99373.22;;;27.97
75428;BMP280;64008;55.612;37.698;2023-08-07T10:23:53;99372.59;;;28.04
75428;BMP280;64008;55.612;37.698;2023-08-07T10:26:21;99367.06;;;28.00
75428;BMP280;64008;55.612;37.698;2023-08-07T10:28:49;99365.16;;;28.01
75428;BMP280;64008;55.612;37.698;2023-08-07T10:31:15;99363.69;;;28.07
75428;BMP280;64008;55.612;37.698;2023-08-07T10:33:41;99365.03;;;28.17
75428;BMP280;64008;55.612;37.698;2023-08-07T10:36:10;99365.03;;;28.17
75428;BMP280;64008;55.612;37.698;2023-08-07T10:38:36;99356.97;;;28.20
75428;BMP280;64008;55.612;37.698;2023-08-07T10:41:06;99356.97;;;28.20
75428;BMP280;64008;55.612;37.698;2023-08-07T10:43:39;99349.53;;;28.17
75428;BMP280;64008;55.612;37.698;2023-08-07T10:46:08;99348.81;;;28.20
75428;BMP280;64008;55.612;37.698;2023-08-07T10:48:38;99350.31;;;28.18
75428;BMP280;64008;55.612;37.698;2023-08-07T10:51:05;99351.94;;;28.22
75428;BMP280;64008;55.612;37.698;2023-08-07T10:53:32;99336.47;;;28.27
75428;BMP280;64008;55.612;37.698;2023-08-07T10:56:07;99346.34;;;28.35
75428;BMP280;64008;55.612;37.698;2023-08-07T11:03:57;99325.84;;;28.41
75428;BMP280;64008;55.612;37.698;2023-08-07T11:06:33;99308.06;;;28.47
75428;BMP280;64008;55.612;37.698;2023-08-07T11:09:00;99324.44;;;28.51
75428;BMP280;64008;55.612;37.698;2023-08-07T11:11:29;99324.44;;;28.51
75428;BMP280;64008;55.612;37.698;2023-08-07T11:13:55;99325.22;;;28.51
75428;BMP280;64008;55.612;37.698;2023-08-07T11:16:21;99305.16;;;28.59
75428;BMP280;64008;55.612;37.698;2023-08-07T11:18:48;99311.47;;;28.67
75428;BMP280;64008;55.612;37.698;2023-08-07T11:21:14;99314.56;;;28.69
75428;BMP280;64008;55.612;37.698;2023-08-07T11:23:40;99314.56;;;28.69
75428;BMP280;64008;55.612;37.698;2023-08-07T11:26:06;99315.44;;;28.73
75428;BMP280;64008;55.612;37.698;2023-08-07T11:28:32;99310.81;;;28.77
75428;BMP280;64008;55.612;37.698;2023-08-07T11:30:58;99305.38;;;28.77
75428;BMP280;64008;55.612;37.698;2023-08-07T11:33:25;99307.41;;;28.84
75428;BMP280;64008;55.612;37.698;2023-08-07T11:35:51;99300.41;;;28.83
75428;BMP280;64008;55.612;37.698;2023-08-07T11:38:42;99296.16;;;28.85
75428;BMP280;64008;55.612;37.698;2023-08-07T11:41:15;99296.16;;;28.85
75428;BMP280;64008;55.612;37.698;2023-08-07T11:43:41;99309.78;;;28.89
75428;BMP280;64008;55.612;37.698;2023-08-07T11:46:09;99302.06;;;28.91
75428;BMP280;64008;55.612;37.698;2023-08-07T11:48:37;99290.38;;;28.90
75428;BMP280;64008;55.612;37.698;2023-08-07T11:51:03;99282.72;;;29.00
75428;BMP280;64008;55.612;37.698;2023-08-07T11:53:32;99282.72;;;29.00
75428;BMP280;64008;55.612;37.698;2023-08-07T11:58:27;99296.31;;;29.00
75428;BMP280;64008;55.612;37.698;2023-08-07T12:00:58;99279.31;;;29.06
75428;BMP280;64008;55.612;37.698;2023-08-07T12:05:51;99272.78;;;29.11
75428;BMP280;64008;55.612;37.698;2023-08-07T12:08:16;99272.53;;;29.23
75428;BMP280;64008;55.612;37.698;2023-08-07T12:10:42;99272.53;;;29.23
75428;BMP280;64008;55.612;37.698;2023-08-07T12:13:12;99266.97;;;29.16
75428;BMP280;64008;55.612;37.698;2023-08-07T12:15:37;99258.44;;;29.17
75428;BMP280;64008;55.612;37.698;2023-08-07T12:18:03;99256.16;;;29.19
75428;BMP280;64008;55.612;37.698;2023-08-07T12:20:29;99251.50;;;29.20
75428;BMP280;64008;55.612;37.698;2023-08-07T12:22:54;99253.13;;;29.28
75428;BMP280;64008;55.612;37.698;2023-08-07T12:25:20;99249.56;;;29.24
75428;BMP280;64008;55.612;37.698;2023-08-07T12:27:45;99247.72;;;29.32
75428;BMP280;64008;55.612;37.698;2023-08-07T12:30:13;99257.72;;;29.24
75428;BMP280;64008;55.612;37.698;2023-08-07T12:32:38;99241.84;;;29.30
75428;BMP280;64008;55.612;37.698;2023-08-07T12:35:04;99240.72;;;29.31
75428;BMP280;64008;55.612;37.698;2023-08-07T12:37:33;99235.28;;;29.31
75428;BMP280;64008;55.612;37.698;2023-08-07T12:39:59;99239.19;;;29.37
75428;BMP280;64008;55.612;37.698;2023-08-07T12:42:24;99239.19;;;29.37
75428;BMP280;64008;55.612;37.698;2023-08-07T12:44:50;99242.66;;;29.34
75428;BMP280;64008;55.612;37.698;2023-08-07T12:47:15;99229.91;;;29.38
75428;BMP280;64008;55.612;37.698;2023-08-07T12:49:41;99227.59;;;29.43
75428;BMP280;64008;55.612;37.698;2023-08-07T12:52:06;99223.72;;;29.41
75428;BMP280;64008;55.612;37.698;2023-08-07T12:54:32;99222.97;;;29.44
75428;BMP280;64008;55.612;37.698;2023-08-07T12:56:57;99217.09;;;29.42
75428;BMP280;64008;55.612;37.698;2023-08-07T12:59:23;99213.25;;;29.47
75428;BMP280;64008;55.612;37.698;2023-08-07T13:01:48;99219.13;;;29.52
75428;BMP280;64008;55.612;37.698;2023-08-07T13:04:14;99206.66;;;29.51
75428;BMP280;64008;55.612;37.698;2023-08-07T13:06:40;99206.63;;;29.48
75428;BMP280;64008;55.612;37.698;2023-08-07T13:09:06;99206.75;;;29.58
75428;BMP280;64008;55.612;37.698;2023-08-07T13:11:32;99198.13;;;29.53
75428;BMP280;64008;55.612;37.698;2023-08-07T13:13:57;99198.13;;;29.53
75428;BMP280;64008;55.612;37.698;2023-08-07T13:16:23;99187.22;;;29.49
75428;BMP280;64008;55.612;37.698;2023-08-07T13:18:48;99193.78;;;29.48
75428;BMP280;64008;55.612;37.698;2023-08-07T13:21:14;99193.47;;;29.53
75428;BMP280;64008;55.612;37.698;2023-08-07T13:23:39;99193.88;;;29.55
75428;BMP280;64008;55.612;37.698;2023-08-07T13:26:05;99182.25;;;29.62
75428;BMP280;64008;55.612;37.698;2023-08-07T13:28:30;99174.50;;;29.67
75428;BMP280;64008;55.612;37.698;2023-08-07T13:30:56;99178.03;;;29.72
75428;BMP280;64008;55.612;37.698;2023-08-07T13:33:23;99167.25;;;29.82
75428;BMP280;64008;55.612;37.698;2023-08-07T13:35:49;99174.97;;;29.77
75428;BMP280;64008;55.612;37.698;2023-08-07T13:38:14;99162.16;;;29.81
75428;BMP280;64008;55.612;37.698;2023-08-07T13:40:41;99164.91;;;29.88
75428;BMP280;64008;55.612;37.698;2023-08-07T13:43:09;99164.91;;;29.88
75428;BMP280;64008;55.612;37.698;2023-08-07T13:45:35;99155.59;;;29.85
75428;BMP280;64008;55.612;37.698;2023-08-07T13:48:01;99164.94;;;29.91
75428;BMP280;64008;55.612;37.698;2023-08-07T13:50:27;99156.72;;;29.84
75428;BMP280;64008;55.612;37.698;2023-08-07T13:52:52;99152.84;;;29.89
75428;BMP280;64008;55.612;37.698;2023-08-07T13:55:18;99146.66;;;29.92
75428;BMP280;64008;55.612;37.698;2023-08-07T13:57:43;99145.47;;;29.89
75428;BMP280;64008;55.612;37.698;2023-08-07T14:00:10;99147.06;;;29.94
75428;BMP280;64008;55.612;37.698;2023-08-07T14:02:36;99150.16;;;29.92
75428;BMP280;64008;55.612;37.698;2023-08-07T14:05:02;99140.84;;;29.97
75428;BMP280;64008;55.612;37.698;2023-08-07T14:07:27;99142.34;;;29.95